Ithaca, NY

6:00 AM EST on March 01, 2015 (GMT -0500)
Muzzy Rd, Danby NY | Change Station
CLOSE
Current Station
Personal Weather Station
Location: Ithaca, NY
Elevation: 1427 ft
Nearby Weather Stations

Elev 1427 ft 42.38 °N, 76.48 °W | Updated 14 minutes ago

Snow
Snow
13.0 °F
Feels Like 3 °F
N
7.0
Wind Variable Wind from SSE
Gusts 9.0 mph

Today
High -- | Low -- °F
--% Chance of Precip.
Yesterday
High -- | Low -- °F
Precip. -- in
6:41 AM 5:55 PM
Waxing Gibbous, 84% visible
Pressure 30.58 in
Visibility 8.0 miles
Clouds Overcast 2700 ft
Windchill 3 °F
Dew Point 8 °F
Humidity 81%
Rainfall 0.00 in
Snow Depth Not available.
UV 0 out of 12
Pollen .30 out of 12
Air Quality Not available.
Flu Activity Not available.
METAR KITH 011056Z AUTO 16009KT 8SM -SN OVC027 M09/M12 A3052 RMK AO2 T10941122 OVC V BKN P0000 SLP356

More Conditions Fewer Conditions

Pressure 30.58 in
Visibility 8.0 miles
Clouds Overcast 2700 ft
Windchill 3 °F
Dew Point 8 °F
Humidity 81%
Rainfall 0.00 in
Snow Depth Not available.
UV 0 out of 12
Pollen .30 out of 12
Air Quality Not available.
Flu Activity Not available.
METAR KITH 011056Z AUTO 16009KT 8SM -SN OVC027 M09/M12 A3052 RMK AO2 T10941122 OVC V BKN P0000 SLP356

More Conditions Fewer Conditions

10-Day Weather Forecast

Almanac

Astronomy

Mar. 01, 2015 Rise Set
Actual Time
Civil Twilight
Nautical Twilight
Astronomical Twilight
Moon
Length of Visible Light
Length of Day
Tomorrow will be .
, % of the Moon is Illuminated

Today's Extremes

State Highs State Lows

Community

WunderPhotos

Upload Photos

1,801,359 photos uploaded!

WunderBlogs® & News

Nearby

Air Quality

  Air Quality AQ Index Pollutant
Not available.

Snow Depth

Station Depth Elevation

Earthquake Activity

City Distance Mag. Time & Date
Minimum magnitude displayed is 2.5.

Coastal Water Temperatures

Place Temperature

Nearby Weather Stations